createdAt,value
2022-10-07T00:01:38.012Z,10.00
2022-10-07T00:04:25.733Z,10.00
2022-10-07T00:07:15.320Z,10.00
2022-10-07T00:10:03.677Z,9.90
2022-10-07T00:12:51.175Z,9.90
2022-10-07T00:15:39.159Z,9.90
2022-10-07T00:18:26.597Z,9.90
2022-10-07T00:21:17.054Z,9.80
2022-10-07T00:24:06.965Z,9.90
2022-10-07T00:26:54.378Z,9.90
2022-10-07T00:29:41.807Z,9.90
2022-10-07T00:32:29.330Z,9.90
2022-10-07T00:35:16.725Z,9.90
2022-10-07T00:38:04.170Z,9.90
2022-10-07T00:40:51.795Z,9.90
2022-10-07T00:43:39.445Z,9.80
2022-10-07T00:46:39.024Z,9.80
2022-10-07T00:49:29.698Z,9.70
2022-10-07T00:52:21.870Z,9.70
2022-10-07T00:55:15.943Z,9.60
2022-10-07T00:58:10.028Z,9.60
2022-10-07T01:00:58.898Z,9.60
2022-10-07T01:03:49.294Z,9.60
2022-10-07T01:06:39.349Z,9.60
2022-10-07T01:09:27.492Z,9.60
2022-10-07T01:12:33.785Z,9.60
2022-10-07T01:15:46.589Z,9.50
2022-10-07T01:18:57.836Z,9.50
2022-10-07T01:22:11.616Z,9.40
2022-10-07T01:25:41.550Z,9.40
2022-10-07T01:28:40.909Z,9.40
2022-10-07T01:31:40.745Z,9.30
2022-10-07T01:34:28.950Z,9.30
2022-10-07T01:37:22.694Z,9.20
2022-10-07T01:40:21.998Z,9.20
2022-10-07T01:43:10.058Z,9.10
2022-10-07T01:45:58.377Z,9.10
2022-10-07T01:48:47.639Z,9.10
2022-10-07T01:51:41.715Z,9.10
2022-10-07T01:55:07.168Z,9.10
2022-10-07T01:58:39.099Z,9.10
2022-10-07T02:01:48.385Z,9.10
2022-10-07T02:05:21.922Z,9.00
2022-10-07T02:08:20.614Z,9.00
2022-10-07T02:11:23.976Z,9.00
2022-10-07T02:14:49.206Z,9.00
2022-10-07T02:17:46.049Z,8.90
2022-10-07T02:20:40.528Z,8.90
2022-10-07T02:23:28.975Z,8.80
2022-10-07T02:26:22.091Z,8.90
2022-10-07T02:29:14.852Z,8.80
2022-10-07T02:32:08.623Z,8.70
2022-10-07T02:35:05.468Z,8.70
2022-10-07T02:37:57.411Z,8.60
2022-10-07T02:40:59.993Z,8.60
2022-10-07T02:43:56.437Z,8.60
2022-10-07T02:47:22.516Z,8.60
2022-10-07T02:50:16.957Z,8.50
2022-10-07T02:53:06.313Z,8.50
2022-10-07T02:55:57.038Z,8.60
2022-10-07T02:58:47.465Z,8.60
2022-10-07T03:01:45.498Z,8.60
2022-10-07T03:04:33.256Z,8.50
2022-10-07T03:07:21.881Z,8.50
2022-10-07T03:10:10.186Z,8.50
2022-10-07T03:12:57.956Z,8.50
2022-10-07T03:15:46.028Z,8.50
2022-10-07T03:18:34.606Z,8.50
2022-10-07T03:21:22.709Z,8.40
2022-10-07T03:24:11.317Z,8.40
2022-10-07T03:26:58.695Z,8.40
2022-10-07T03:29:46.156Z,8.40
2022-10-07T03:32:34.206Z,8.40
2022-10-07T03:35:22.326Z,8.40
2022-10-07T03:38:10.736Z,8.30
2022-10-07T03:40:58.310Z,8.30
2022-10-07T03:43:46.281Z,8.40
2022-10-07T03:46:33.832Z,8.30
2022-10-07T03:49:21.541Z,8.30
2022-10-07T03:52:09.006Z,8.30
2022-10-07T03:54:56.826Z,8.20
2022-10-07T03:57:51.288Z,8.20
2022-10-07T04:00:40.388Z,8.20
2022-10-07T04:03:28.332Z,8.20
2022-10-07T04:06:15.810Z,8.10
2022-10-07T04:09:03.589Z,8.10
2022-10-07T04:11:51.457Z,8.10
2022-10-07T04:14:39.295Z,8.10
2022-10-07T04:17:26.806Z,8.10
2022-10-07T04:20:16.621Z,8.10
2022-10-07T04:23:04.236Z,8.20
2022-10-07T04:25:51.751Z,8.00
2022-10-07T04:28:40.837Z,8.00
2022-10-07T04:31:28.407Z,8.00
2022-10-07T04:34:16.051Z,8.00
2022-10-07T04:37:03.451Z,8.00
2022-10-07T04:40:00.631Z,8.00
2022-10-07T04:43:08.863Z,8.00
2022-10-07T04:46:11.576Z,8.00
2022-10-07T04:48:59.117Z,8.10
2022-10-07T04:51:47.750Z,8.10
2022-10-07T04:54:35.217Z,8.10
2022-10-07T04:57:22.706Z,8.00
2022-10-07T05:00:11.141Z,8.00
2022-10-07T05:02:58.667Z,8.00
2022-10-07T05:05:49.917Z,8.00
2022-10-07T05:08:37.397Z,8.00
2022-10-07T05:11:26.095Z,8.00
2022-10-07T05:14:13.511Z,8.10
2022-10-07T05:17:01.032Z,8.20
2022-10-07T05:19:48.521Z,8.30
2022-10-07T05:22:36.586Z,8.30
2022-10-07T05:25:24.051Z,8.40
2022-10-07T05:28:12.980Z,8.50
2022-10-07T05:31:07.777Z,8.60
2022-10-07T05:33:56.510Z,8.70
2022-10-07T05:36:44.291Z,8.80
2022-10-07T05:39:31.727Z,8.80
2022-10-07T05:42:19.430Z,8.90
2022-10-07T05:45:07.701Z,9.00
2022-10-07T05:47:55.131Z,9.10
2022-10-07T05:50:47.687Z,9.20
2022-10-07T05:53:35.330Z,9.30
2022-10-07T05:56:22.908Z,9.40
2022-10-07T05:59:10.635Z,9.50
2022-10-07T06:02:00.621Z,9.60
2022-10-07T06:04:49.295Z,9.70
2022-10-07T06:07:36.801Z,9.80
2022-10-07T06:10:43.133Z,9.90
2022-10-07T06:13:30.962Z,10.00
2022-10-07T06:16:18.811Z,10.10
2022-10-07T06:19:22.452Z,10.10
2022-10-07T06:22:11.336Z,10.30
2022-10-07T06:25:02.207Z,10.40
2022-10-07T06:27:53.915Z,10.50
2022-10-07T06:30:42.101Z,10.60
2022-10-07T06:33:29.615Z,10.70
2022-10-07T06:36:18.231Z,10.90
2022-10-07T06:39:05.810Z,10.90
2022-10-07T06:41:54.724Z,11.00
2022-10-07T06:44:43.346Z,11.10
2022-10-07T06:47:30.815Z,11.20
2022-10-07T06:50:18.476Z,11.30
2022-10-07T06:53:05.865Z,11.40
2022-10-07T06:55:58.105Z,11.40
2022-10-07T06:58:45.525Z,11.50
2022-10-07T07:01:33.626Z,11.60
2022-10-07T07:04:21.141Z,11.60
2022-10-07T07:07:08.604Z,11.70
2022-10-07T07:09:56.145Z,11.80
2022-10-07T07:12:43.998Z,11.90
2022-10-07T07:15:32.825Z,12.00
2022-10-07T07:18:20.251Z,12.10
2022-10-07T07:21:07.889Z,12.20
2022-10-07T07:23:55.991Z,12.30
2022-10-07T07:26:43.665Z,12.30
2022-10-07T07:29:31.135Z,12.40
2022-10-07T07:32:18.673Z,12.50
2022-10-07T07:35:07.716Z,12.60
2022-10-07T07:37:55.617Z,12.60
2022-10-07T07:40:43.026Z,12.70
2022-10-07T07:43:30.519Z,12.80
2022-10-07T07:46:20.235Z,12.90
2022-10-07T07:49:10.546Z,13.00
2022-10-07T07:51:59.782Z,13.00
2022-10-07T07:54:48.412Z,13.10
2022-10-07T07:57:36.044Z,13.20
2022-10-07T08:00:23.621Z,13.20
2022-10-07T08:03:11.195Z,13.30
2022-10-07T08:06:02.267Z,13.30
2022-10-07T08:08:49.910Z,13.40
2022-10-07T08:11:37.603Z,13.40
2022-10-07T08:14:25.251Z,13.40
2022-10-07T08:17:12.725Z,13.40
2022-10-07T08:20:00.416Z,13.50
2022-10-07T08:22:49.831Z,13.50
2022-10-07T08:25:37.325Z,13.60
2022-10-07T08:28:26.587Z,13.60
2022-10-07T08:31:17.681Z,13.70
2022-10-07T08:34:06.556Z,13.80
2022-10-07T08:36:55.140Z,13.80
2022-10-07T08:39:42.621Z,13.80
2022-10-07T08:42:43.195Z,13.90
2022-10-07T08:45:33.795Z,14.00
2022-10-07T08:48:32.926Z,14.00
2022-10-07T08:52:03.028Z,14.00
2022-10-07T08:54:50.521Z,14.00
2022-10-07T08:57:51.350Z,14.00
2022-10-07T09:01:07.468Z,14.10
2022-10-07T09:04:20.630Z,14.10
2022-10-07T09:07:20.370Z,14.20
2022-10-07T09:10:10.605Z,14.20
2022-10-07T09:13:03.808Z,14.30
2022-10-07T09:16:14.137Z,14.30
2022-10-07T09:19:04.165Z,14.40
2022-10-07T09:21:52.137Z,14.30
2022-10-07T09:24:39.922Z,14.40
2022-10-07T09:27:27.522Z,14.40
2022-10-07T09:30:16.610Z,14.50
2022-10-07T09:33:09.326Z,14.50
2022-10-07T09:36:11.024Z,14.50
2022-10-07T09:39:23.159Z,14.50
2022-10-07T09:42:45.875Z,14.60
2022-10-07T09:45:35.076Z,14.70
2022-10-07T09:48:29.035Z,14.70
2022-10-07T09:51:25.580Z,14.70
2022-10-07T09:54:21.065Z,14.70
2022-10-07T09:57:25.972Z,14.80
2022-10-07T10:00:13.403Z,14.80
2022-10-07T10:03:08.036Z,14.90
2022-10-07T10:05:59.619Z,15.10
2022-10-07T10:08:57.607Z,15.20
2022-10-07T10:11:46.067Z,15.30
2022-10-07T10:15:26.235Z,15.50
2022-10-07T10:18:34.465Z,15.60
2022-10-07T10:21:30.077Z,15.80
2022-10-07T10:24:17.671Z,15.70
2022-10-07T10:27:28.330Z,15.70
2022-10-07T10:30:25.933Z,15.60
2022-10-07T10:33:35.495Z,15.70
2022-10-07T10:36:27.314Z,15.70
2022-10-07T10:39:44.744Z,15.80
2022-10-07T10:42:52.455Z,15.80
2022-10-07T10:45:48.095Z,15.90
2022-10-07T10:49:15.215Z,15.90
2022-10-07T10:52:23.520Z,16.10
2022-10-07T10:55:41.119Z,16.20
2022-10-07T10:58:55.727Z,16.20
2022-10-07T11:01:46.448Z,16.10
2022-10-07T11:04:46.040Z,16.10
2022-10-07T11:08:03.187Z,16.10
2022-10-07T11:11:01.532Z,16.20
2022-10-07T11:13:59.985Z,16.20
2022-10-07T11:16:58.639Z,16.40
2022-10-07T11:20:04.379Z,16.40
2022-10-07T11:23:00.809Z,16.40
2022-10-07T11:26:00.532Z,16.50
2022-10-07T11:28:51.698Z,16.50
2022-10-07T11:31:47.799Z,16.60
2022-10-07T11:35:00.626Z,16.60
2022-10-07T11:37:58.429Z,16.50
2022-10-07T11:40:52.696Z,16.40
2022-10-07T11:43:58.405Z,16.50
2022-10-07T11:46:48.699Z,16.40
2022-10-07T11:50:04.282Z,16.30
2022-10-07T11:53:01.481Z,16.40
2022-10-07T11:56:04.920Z,16.60
2022-10-07T11:59:02.900Z,16.70
2022-10-07T12:01:53.584Z,16.80
2022-10-07T12:04:41.166Z,16.90
2022-10-07T12:07:59.820Z,16.90
2022-10-07T12:10:53.631Z,17.00
2022-10-07T12:13:52.900Z,17.00
2022-10-07T12:16:53.191Z,17.00
2022-10-07T12:19:40.645Z,16.90
2022-10-07T12:22:28.133Z,16.80
2022-10-07T12:25:32.581Z,16.90
2022-10-07T12:28:36.691Z,16.90
2022-10-07T12:31:24.282Z,16.90
2022-10-07T12:34:11.886Z,16.90
2022-10-07T12:37:46.380Z,16.80
2022-10-07T12:40:37.712Z,16.60
2022-10-07T12:43:37.305Z,16.50
2022-10-07T12:46:32.826Z,16.50
2022-10-07T12:49:37.267Z,16.60
2022-10-07T12:53:00.975Z,16.50
2022-10-07T12:55:53.535Z,16.60
2022-10-07T12:59:24.117Z,16.50
2022-10-07T13:02:35.061Z,16.50
2022-10-07T13:06:03.796Z,16.50
2022-10-07T13:09:10.130Z,16.50
2022-10-07T13:12:35.255Z,16.50
2022-10-07T13:15:50.451Z,16.60
2022-10-07T13:18:59.761Z,16.50
2022-10-07T13:22:16.906Z,16.50
2022-10-07T13:25:07.800Z,16.50
2022-10-07T13:28:00.337Z,16.40
2022-10-07T13:30:50.543Z,16.30
2022-10-07T13:33:37.967Z,16.30
2022-10-07T13:36:30.460Z,16.30
2022-10-07T13:39:23.351Z,16.40
2022-10-07T13:42:16.971Z,16.50
2022-10-07T13:45:15.905Z,16.60
2022-10-07T13:48:03.401Z,16.70
2022-10-07T13:50:56.871Z,16.80
2022-10-07T13:53:44.307Z,16.70
2022-10-07T13:56:42.088Z,16.70
2022-10-07T13:59:36.653Z,16.60
2022-10-07T14:02:24.350Z,16.70
2022-10-07T14:05:27.412Z,16.50
2022-10-07T14:08:26.795Z,16.30
2022-10-07T14:11:22.732Z,16.00
2022-10-07T14:14:25.516Z,15.80
2022-10-07T14:17:43.418Z,15.90
2022-10-07T14:20:50.825Z,15.90
2022-10-07T14:23:38.466Z,16.00
2022-10-07T14:26:45.506Z,16.10
2022-10-07T14:29:37.875Z,16.20
2022-10-07T14:32:44.483Z,15.90
2022-10-07T14:35:34.204Z,16.00
2022-10-07T14:38:29.472Z,16.00
2022-10-07T14:41:22.075Z,16.00
2022-10-07T14:44:09.584Z,16.00
2022-10-07T14:47:16.431Z,16.00
2022-10-07T14:50:04.600Z,16.00
2022-10-07T14:52:53.002Z,15.90
2022-10-07T14:55:40.868Z,15.90
2022-10-07T14:58:29.326Z,15.90
2022-10-07T15:01:16.786Z,15.90
2022-10-07T15:04:04.399Z,15.80
2022-10-07T15:06:52.061Z,15.80
2022-10-07T15:09:40.616Z,15.60
2022-10-07T15:12:29.106Z,15.60
2022-10-07T15:15:16.868Z,15.50
2022-10-07T15:18:05.276Z,15.50
2022-10-07T15:20:57.493Z,15.40
2022-10-07T15:23:45.162Z,15.20
2022-10-07T15:26:32.601Z,15.10
2022-10-07T15:29:21.831Z,15.10
2022-10-07T15:32:09.325Z,15.10
2022-10-07T15:34:58.193Z,15.00
2022-10-07T15:37:45.989Z,14.90
2022-10-07T15:40:33.487Z,14.80
2022-10-07T15:43:21.451Z,14.70
2022-10-07T15:46:08.937Z,14.60
2022-10-07T15:48:57.876Z,14.60
2022-10-07T15:51:48.943Z,14.60
2022-10-07T15:54:37.420Z,14.50
2022-10-07T15:57:25.085Z,14.30
2022-10-07T16:00:13.681Z,14.20
2022-10-07T16:03:02.854Z,14.10
2022-10-07T16:06:02.310Z,14.10
2022-10-07T16:08:53.787Z,13.90
2022-10-07T16:11:41.167Z,13.80
2022-10-07T16:14:28.606Z,13.70
2022-10-07T16:17:16.033Z,13.60
2022-10-07T16:20:10.389Z,13.50
2022-10-07T16:22:58.861Z,13.40
2022-10-07T16:25:46.337Z,13.30
2022-10-07T16:28:53.729Z,13.10
2022-10-07T16:31:44.242Z,13.00
2022-10-07T16:34:31.916Z,12.90
2022-10-07T16:37:19.370Z,12.80
2022-10-07T16:40:08.130Z,12.70
2022-10-07T16:42:59.699Z,12.70
2022-10-07T16:45:47.238Z,12.60
2022-10-07T16:48:43.536Z,12.50
2022-10-07T16:51:35.597Z,12.50
2022-10-07T16:54:23.241Z,12.40
2022-10-07T16:57:10.631Z,12.30
2022-10-07T16:59:59.624Z,12.20
2022-10-07T17:02:47.036Z,12.20
2022-10-07T17:05:37.443Z,12.10
2022-10-07T17:08:25.197Z,12.10
2022-10-07T17:11:30.693Z,12.00
2022-10-07T17:14:21.513Z,11.90
2022-10-07T17:17:09.611Z,11.80
2022-10-07T17:19:57.550Z,11.80
2022-10-07T17:22:45.265Z,11.70
2022-10-07T17:25:32.746Z,11.70
2022-10-07T17:28:21.065Z,11.60
2022-10-07T17:31:12.639Z,11.60
2022-10-07T17:34:01.280Z,11.60
2022-10-07T17:36:50.353Z,11.60
2022-10-07T17:39:38.021Z,11.60
2022-10-07T17:42:25.771Z,11.60
2022-10-07T17:45:13.491Z,11.50
2022-10-07T17:48:01.785Z,11.50
2022-10-07T17:50:49.216Z,11.40
2022-10-07T17:53:39.651Z,11.40
2022-10-07T17:56:28.871Z,11.40
2022-10-07T17:59:17.150Z,11.50
2022-10-07T18:02:05.436Z,11.50
2022-10-07T18:04:52.918Z,11.60
2022-10-07T18:07:40.607Z,11.60
2022-10-07T18:10:28.040Z,11.70
2022-10-07T18:13:33.591Z,11.70
2022-10-07T18:16:22.775Z,11.70
2022-10-07T18:19:10.367Z,11.80
2022-10-07T18:21:58.359Z,11.90
2022-10-07T18:24:46.227Z,12.00
2022-10-07T18:27:33.612Z,12.10
2022-10-07T18:30:21.106Z,12.20
2022-10-07T18:33:08.826Z,12.30
2022-10-07T18:36:02.533Z,12.30
2022-10-07T18:38:49.980Z,12.40
2022-10-07T18:41:37.506Z,12.40
2022-10-07T18:44:25.928Z,12.40
2022-10-07T18:47:13.412Z,12.50
2022-10-07T18:50:01.266Z,12.50
2022-10-07T18:52:48.693Z,12.50
2022-10-07T18:55:39.500Z,12.50
2022-10-07T18:58:27.015Z,12.50
2022-10-07T19:01:21.094Z,12.50
2022-10-07T19:04:10.355Z,12.60
2022-10-07T19:06:57.870Z,12.60
2022-10-07T19:09:45.295Z,12.60
2022-10-07T19:12:51.505Z,12.60
2022-10-07T19:15:39.037Z,12.60
2022-10-07T19:18:27.111Z,12.50
2022-10-07T19:21:18.486Z,12.50
2022-10-07T19:24:07.130Z,12.50
2022-10-07T19:26:56.206Z,12.50
2022-10-07T19:29:43.636Z,12.50
2022-10-07T19:32:31.076Z,12.50
2022-10-07T19:35:18.551Z,12.50
2022-10-07T19:38:06.401Z,12.50
2022-10-07T19:40:54.499Z,12.50
2022-10-07T19:43:43.948Z,12.50
2022-10-07T19:46:33.654Z,12.50
2022-10-07T19:49:21.256Z,12.50
2022-10-07T19:52:08.671Z,12.50
2022-10-07T19:54:56.141Z,12.50
2022-10-07T19:57:43.782Z,12.50
2022-10-07T20:00:32.265Z,12.50
2022-10-07T20:03:22.519Z,12.60
2022-10-07T20:06:11.386Z,12.60
2022-10-07T20:08:59.285Z,12.60
2022-10-07T20:11:47.151Z,12.50
2022-10-07T20:14:35.360Z,12.60
2022-10-07T20:17:23.287Z,12.60
2022-10-07T20:20:13.229Z,12.50
2022-10-07T20:23:01.135Z,12.60
2022-10-07T20:25:48.540Z,12.50
2022-10-07T20:28:40.542Z,12.50
2022-10-07T20:31:38.902Z,12.50
2022-10-07T20:34:26.820Z,12.50
2022-10-07T20:37:14.251Z,12.60
2022-10-07T20:40:20.282Z,12.50
2022-10-07T20:43:07.815Z,12.50
2022-10-07T20:45:59.208Z,12.50
2022-10-07T20:48:50.560Z,12.50
2022-10-07T20:51:39.895Z,12.40
2022-10-07T20:54:28.721Z,12.40
2022-10-07T20:57:21.756Z,12.40
2022-10-07T21:00:16.210Z,12.30
2022-10-07T21:03:04.018Z,12.30
2022-10-07T21:05:58.320Z,12.30
2022-10-07T21:08:48.555Z,12.20
2022-10-07T21:11:36.575Z,12.20
2022-10-07T21:14:24.095Z,12.20
2022-10-07T21:17:12.451Z,12.20
2022-10-07T21:19:59.921Z,12.20
2022-10-07T21:22:48.594Z,12.20
2022-10-07T21:25:36.491Z,12.20
2022-10-07T21:28:25.194Z,12.30
2022-10-07T21:31:17.439Z,12.20
2022-10-07T21:34:08.817Z,12.20
2022-10-07T21:36:57.400Z,12.20
2022-10-07T21:39:44.816Z,12.20
2022-10-07T21:42:32.584Z,12.20
2022-10-07T21:45:20.034Z,12.20
2022-10-07T21:48:08.000Z,12.20
2022-10-07T21:51:02.710Z,12.20
2022-10-07T21:53:58.205Z,12.10
2022-10-07T21:56:46.425Z,12.10
2022-10-07T21:59:35.223Z,12.10
2022-10-07T22:02:22.661Z,12.10
2022-10-07T22:05:11.835Z,12.10
2022-10-07T22:08:17.960Z,12.10
2022-10-07T22:11:14.302Z,12.10
2022-10-07T22:14:01.814Z,12.10
2022-10-07T22:16:49.940Z,12.10
2022-10-07T22:19:37.376Z,12.10
2022-10-07T22:22:25.140Z,12.10
2022-10-07T22:25:12.560Z,12.00
2022-10-07T22:28:00.050Z,12.00
2022-10-07T22:30:47.829Z,12.00
2022-10-07T22:33:38.560Z,12.00
2022-10-07T22:36:27.977Z,11.90
2022-10-07T22:39:15.436Z,11.90
2022-10-07T22:42:03.870Z,11.90
2022-10-07T22:44:51.361Z,11.90
2022-10-07T22:47:39.638Z,11.80
2022-10-07T22:50:27.121Z,11.90
2022-10-07T22:53:14.669Z,11.90
2022-10-07T22:56:07.954Z,11.90
2022-10-07T22:59:00.006Z,11.80
2022-10-07T23:01:47.536Z,11.80
2022-10-07T23:04:34.981Z,11.80
2022-10-07T23:07:23.115Z,11.70
2022-10-07T23:10:10.633Z,11.70
2022-10-07T23:13:00.324Z,11.70
2022-10-07T23:16:16.311Z,11.70
2022-10-07T23:19:03.961Z,11.70
2022-10-07T23:21:51.391Z,11.70
2022-10-07T23:24:39.861Z,11.60
2022-10-07T23:27:27.348Z,11.60
2022-10-07T23:30:14.929Z,11.60
2022-10-07T23:33:02.364Z,11.60
2022-10-07T23:35:49.836Z,11.50
2022-10-07T23:38:39.962Z,11.60
2022-10-07T23:41:30.930Z,11.50
2022-10-07T23:44:18.455Z,11.50
2022-10-07T23:47:06.196Z,11.50
2022-10-07T23:49:53.586Z,11.50
2022-10-07T23:52:41.030Z,11.50
2022-10-07T23:55:28.705Z,11.50
2022-10-07T23:58:19.495Z,11.50
